Time;durP1;ratioP1;P1;durP2;ratioP2;P2;SDS_P1;SDS_P2;PMS_P1;PMS_P2;Temp;Humidity;BMP_temperature;BMP_pressure;BME280_temperature;BME280_humidity;BME280_pressure;Samples;Min_cycle;Max_cycle;Signal;HPM_P1;HPM_P2
2023/05/26 00:01:46;;;;;;;10.53;5.13;;;;;;;12.73;68.33;102762.59;6027029;29;20249;-76
2023/05/26 00:05:09;;;;;;;14.37;5.17;;;;;;;12.66;68.63;102763.97;6039851;29;20257;-76
2023/05/26 00:08:31;;;;;;;15.77;6.20;;;;;;;12.66;68.11;102755.00;6035068;29;20237;-77
2023/05/26 00:11:52;;;;;;;10.30;4.47;;;;;;;12.69;68.17;102754.78;6034049;29;20667;-76
2023/05/26 00:15:13;;;;;;;16.63;6.83;;;;;;;12.52;68.60;102753.19;6034184;29;20245;-76
2023/05/26 00:18:34;;;;;;;10.57;5.50;;;;;;;12.57;69.00;102758.31;6037957;29;20222;-76
2023/05/26 00:21:57;;;;;;;22.37;7.37;;;;;;;12.40;69.44;102758.56;6029589;29;20222;-77
2023/05/26 00:25:18;;;;;;;15.43;6.13;;;;;;;12.32;69.46;102756.38;6033794;29;20459;-76
2023/05/26 00:28:38;;;;;;;11.87;5.57;;;;;;;12.40;69.42;102758.56;6042071;29;20233;-77
2023/05/26 00:32:00;;;;;;;15.37;5.27;;;;;;;12.41;70.14;102757.59;6030751;29;20248;-77
2023/05/26 00:35:21;;;;;;;7.23;4.97;;;;;;;12.43;69.47;102756.50;6017221;29;20237;-77
2023/05/26 00:38:44;;;;;;;15.67;5.80;;;;;;;12.19;69.67;102762.66;6039691;29;20234;-78
2023/05/26 00:42:05;;;;;;;11.20;5.10;;;;;;;12.17;70.08;102754.66;6029035;29;20238;-77
2023/05/26 00:45:26;;;;;;;14.03;5.17;;;;;;;12.13;70.58;102758.53;6030392;29;20233;-76
2023/05/26 00:48:47;;;;;;;13.87;5.37;;;;;;;12.19;70.71;102771.66;6037094;29;20292;-76
2023/05/26 00:52:08;;;;;;;16.50;6.80;;;;;;;12.13;71.12;102774.75;6026343;29;20262;-76
2023/05/26 00:55:31;;;;;;;7.07;4.80;;;;;;;12.10;71.33;102774.94;6031563;29;20242;-76
2023/05/26 00:58:51;;;;;;;14.30;5.83;;;;;;;12.03;70.91;102773.63;6040006;29;20234;-77
2023/05/26 01:02:15;;;;;;;9.20;5.43;;;;;;;12.04;70.34;102781.63;6028938;29;20242;-75
2023/05/26 01:05:36;;;;;;;12.67;5.30;;;;;;;11.97;69.91;102777.56;6026071;29;20242;-76
2023/05/26 01:08:56;;;;;;;12.40;6.33;;;;;;;11.71;70.94;102783.78;6039967;29;20631;-76
2023/05/26 01:12:24;;;;;;;9.73;4.73;;;;;;;11.77;70.34;102786.09;6018995;29;20269;-76
2023/05/26 01:15:51;;;;;;;16.57;6.53;;;;;;;11.69;70.34;102793.81;6023911;29;20233;-75
2023/05/26 01:19:34;;;;;;;13.27;5.73;;;;;;;11.63;70.49;102796.88;6039601;29;20250;-75
2023/05/26 01:23:15;;;;;;;11.73;5.70;;;;;;;11.70;70.83;102789.28;6026268;29;20242;-77
2023/05/26 01:26:53;;;;;;;10.10;4.67;;;;;;;11.56;70.33;102802.75;6023437;29;20237;-77
2023/05/26 01:30:17;;;;;;;15.83;5.67;;;;;;;11.32;70.76;102809.66;6025284;29;20282;-76
2023/05/26 01:33:38;;;;;;;12.40;4.37;;;;;;;11.31;70.87;102794.41;6017648;29;20241;-77
2023/05/26 01:36:59;;;;;;;15.97;5.47;;;;;;;11.28;70.94;102798.19;6027635;29;20234;-76
2023/05/26 01:40:19;;;;;;;12.53;5.13;;;;;;;11.38;70.91;102795.78;6039066;29;20320;-76
2023/05/26 01:43:45;;;;;;;13.13;5.23;;;;;;;11.39;70.48;102803.78;6021914;29;22300;-76
2023/05/26 01:47:08;;;;;;;13.97;5.47;;;;;;;11.34;70.80;102803.22;6022090;29;20242;-77
2023/05/26 01:50:35;;;;;;;12.87;5.73;;;;;;;11.19;70.64;102807.72;6028016;29;20245;-76
2023/05/26 01:54:01;;;;;;;18.13;5.57;;;;;;;11.07;70.67;102804.88;6039473;29;20681;-76
2023/05/26 01:57:25;;;;;;;12.07;4.70;;;;;;;11.24;70.59;102808.28;6022675;29;20233;-75
2023/05/26 02:00:47;;;;;;;13.50;5.97;;;;;;;11.16;70.57;102807.88;6031824;29;20234;-76
2023/05/26 02:04:11;;;;;;;14.13;5.23;;;;;;;10.91;71.04;102804.91;6039790;29;20253;-77
2023/05/26 02:07:34;;;;;;;17.30;5.93;;;;;;;10.99;70.83;102816.13;6026084;29;20324;-77
2023/05/26 02:10:55;;;;;;;10.63;4.57;;;;;;;10.82;71.08;102815.41;6029457;29;20672;-77
2023/05/26 02:14:16;;;;;;;8.17;4.00;;;;;;;10.86;71.08;102811.56;6038581;29;20751;-76
2023/05/26 02:17:37;;;;;;;12.37;4.70;;;;;;;10.79;71.12;102815.56;6031628;29;20329;-76
2023/05/26 02:20:59;;;;;;;16.30;6.60;;;;;;;10.77;71.31;102829.16;6026770;29;20242;-76
2023/05/26 02:24:22;;;;;;;14.63;4.60;;;;;;;10.82;71.01;102826.19;6025327;29;20241;-76
2023/05/26 02:27:43;;;;;;;15.53;4.83;;;;;;;10.80;70.86;102823.59;6020257;29;20238;-76
2023/05/26 02:31:04;;;;;;;19.33;4.97;;;;;;;10.59;71.17;102830.22;6025754;29;20253;-76
2023/05/26 02:34:24;;;;;;;9.57;4.80;;;;;;;10.53;71.15;102833.28;6035406;29;20226;-76
2023/05/26 02:37:47;;;;;;;14.43;4.53;;;;;;;10.51;71.31;102842.41;6023756;29;20237;-76
2023/05/26 02:41:08;;;;;;;10.40;5.23;;;;;;;10.60;71.28;102840.03;6025674;29;21091;-76
2023/05/26 02:44:29;;;;;;;10.63;4.90;;;;;;;10.59;71.42;102837.44;5998064;29;20237;-76
2023/05/26 02:47:50;;;;;;;15.00;5.87;;;;;;;10.64;70.99;102847.00;6025098;29;20616;-75
2023/05/26 02:51:11;;;;;;;9.90;4.87;;;;;;;10.70;71.13;102843.09;6024667;29;20229;-76
2023/05/26 02:54:34;;;;;;;17.20;6.03;;;;;;;10.64;70.87;102846.16;6037348;29;20239;-76
2023/05/26 02:57:56;;;;;;;11.20;4.90;;;;;;;10.62;70.78;102861.56;6029585;29;20234;-76
2023/05/26 03:01:17;;;;;;;9.87;5.13;;;;;;;10.56;71.17;102860.06;6026486;29;20862;-77
2023/05/26 03:04:38;;;;;;;14.97;5.63;;;;;;;10.48;71.41;102858.75;6030898;29;20242;-76
2023/05/26 03:07:59;;;;;;;7.93;4.57;;;;;;;10.37;70.83;102865.63;6023074;29;20632;-76
2023/05/26 03:11:21;;;;;;;15.53;5.63;;;;;;;10.28;71.30;102855.34;6013603;29;20245;-76
2023/05/26 03:14:43;;;;;;;15.20;5.57;;;;;;;10.26;71.80;102862.66;6031229;29;20304;-76
2023/05/26 03:18:04;;;;;;;12.03;4.63;;;;;;;10.45;71.92;102859.81;6029987;29;20238;-76
2023/05/26 03:21:27;;;;;;;11.67;4.97;;;;;;;10.57;72.10;102858.22;6029270;29;20228;-76
2023/05/26 03:24:48;;;;;;;12.80;5.80;;;;;;;10.38;71.94;102861.09;6042714;29;20222;-77
2023/05/26 03:28:10;;;;;;;22.23;6.67;;;;;;;10.42;72.01;102858.16;6030384;29;20325;-76
2023/05/26 03:31:33;;;;;;;7.20;4.03;;;;;;;10.52;71.71;102861.19;6029427;29;20237;-76
2023/05/26 03:34:55;;;;;;;15.73;5.47;;;;;;;10.41;71.58;102859.09;6028350;29;20316;-76
2023/05/26 03:38:16;;;;;;;17.07;4.77;;;;;;;10.26;72.19;102864.50;6034945;29;20249;-76
2023/05/26 03:41:38;;;;;;;7.77;4.67;;;;;;;10.44;72.35;102861.63;6032829;29;20226;-76
2023/05/26 03:45:00;;;;;;;8.30;3.97;;;;;;;10.48;71.83;102864.13;6032864;29;20234;-77
2023/05/26 03:48:20;;;;;;;21.27;5.90;;;;;;;10.49;71.54;102864.06;6029248;29;20234;-76
2023/05/26 03:51:42;;;;;;;5.60;3.57;;;;;;;10.21;71.58;102866.56;6027861;29;20582;-76
2023/05/26 03:55:03;;;;;;;10.20;5.93;;;;;;;10.33;72.14;102858.66;6029151;29;20234;-76
2023/05/26 03:58:24;;;;;;;11.50;6.90;;;;;;;10.45;71.88;102860.66;6028782;29;20617;-76
2023/05/26 04:01:46;;;;;;;12.53;6.10;;;;;;;10.05;72.37;102865.63;6028548;29;20233;-75
2023/05/26 04:05:08;;;;;;;24.37;8.17;;;;;;;10.32;72.08;102862.31;6038026;29;20230;-76
2023/05/26 04:08:30;;;;;;;12.07;5.00;;;;;;;10.18;72.05;102864.06;6003947;29;20636;-75
2023/05/26 04:11:51;;;;;;;12.53;4.87;;;;;;;10.36;72.54;102865.72;6036056;29;20238;-76
2023/05/26 04:15:12;;;;;;;21.43;11.33;;;;;;;10.38;71.99;102867.38;6030473;29;20273;-76
2023/05/26 04:18:34;;;;;;;16.63;6.43;;;;;;;10.42;72.07;102868.94;6041215;29;20632;-76
2023/05/26 04:21:55;;;;;;;11.07;6.67;;;;;;;10.62;71.59;102872.34;6028087;29;20242;-75
2023/05/26 04:25:16;;;;;;;12.10;5.20;;;;;;;10.48;71.49;102877.63;6038481;29;20242;-75
2023/05/26 04:28:45;;;;;;;15.33;5.83;;;;;;;10.55;71.80;102870.94;6038305;29;20600;-76
2023/05/26 04:32:20;;;;;;;10.00;5.87;;;;;;;10.70;71.48;102880.84;6028895;29;21994;-76
2023/05/26 04:36:16;;;;;;;12.47;4.70;;;;;;;10.66;71.43;102882.00;6013471;29;20842;-76
2023/05/26 04:39:36;;;;;;;12.00;5.07;;;;;;;10.54;71.41;102879.97;6039674;29;20266;-75
2023/05/26 04:42:58;;;;;;;16.07;5.57;;;;;;;10.60;71.78;102876.94;6030701;29;20242;-75
2023/05/26 04:46:19;;;;;;;20.57;5.53;;;;;;;10.76;71.41;102885.91;6031225;29;20261;-75
2023/05/26 04:49:42;;;;;;;8.23;4.70;;;;;;;10.62;71.45;102886.66;6026875;29;20229;-80
2023/05/26 04:53:05;;;;;;;11.07;6.00;;;;;;;10.90;71.37;102894.06;6034504;29;20635;-76
2023/05/26 04:56:26;;;;;;;9.47;4.20;;;;;;;11.03;70.53;102889.69;6039063;29;20237;-75
2023/05/26 04:59:52;;;;;;;13.50;5.17;;;;;;;11.05;70.80;102899.44;6031048;29;20238;-75
2023/05/26 05:03:13;;;;;;;13.27;5.20;;;;;;;10.84;71.03;102898.00;6019211;29;20235;-75
2023/05/26 05:06:44;;;;;;;14.87;6.33;;;;;;;11.01;71.24;102895.16;6025872;29;20242;-75
2023/05/26 05:10:07;;;;;;;9.33;6.40;;;;;;;11.19;70.89;102902.19;6037843;29;20505;-75
2023/05/26 05:13:29;;;;;;;18.83;5.27;;;;;;;11.36;70.29;102905.72;6040574;29;20281;-75
2023/05/26 05:16:50;;;;;;;10.70;3.93;;;;;;;11.09;70.10;102914.50;6036612;29;20242;-76
2023/05/26 05:20:11;;;;;;;19.37;5.87;;;;;;;11.37;69.35;102907.47;6043833;29;20520;-76
2023/05/26 05:23:34;;;;;;;9.63;5.60;;;;;;;11.30;69.54;102904.28;6043215;29;20263;-76
2023/05/26 05:26:58;;;;;;;19.20;5.37;;;;;;;11.29;69.83;102910.63;6035372;29;20508;-76
2023/05/26 05:30:19;;;;;;;6.10;5.03;;;;;;;11.05;69.64;102915.66;6028342;29;20233;-77
2023/05/26 05:33:42;;;;;;;15.23;6.07;;;;;;;11.23;69.80;102909.16;6039469;29;20237;-76
2023/05/26 05:37:04;;;;;;;15.40;5.40;;;;;;;11.30;69.30;102920.47;6013311;29;20692;-73
2023/05/26 05:40:25;;;;;;;7.40;4.50;;;;;;;11.33;69.46;102916.72;6013160;29;20238;-72
2023/05/26 05:43:49;;;;;;;15.10;4.80;;;;;;;11.44;68.81;102928.63;6025255;29;20234;-70
2023/05/26 05:47:10;;;;;;;15.53;4.60;;;;;;;11.48;69.56;102926.59;6024692;29;20616;-70
2023/05/26 05:50:37;;;;;;;7.93;4.80;;;;;;;11.43;69.16;102931.41;6013036;29;20235;-71
2023/05/26 05:53:58;;;;;;;8.83;5.87;;;;;;;12.30;71.01;102917.88;6018006;29;20242;-68
2023/05/26 05:57:21;;;;;;;18.83;4.63;;;;;;;12.66;70.71;102920.06;6012325;29;20515;-70
2023/05/26 06:00:43;;;;;;;14.03;5.00;;;;;;;12.68;68.86;102929.78;6002498;29;20597;-69
2023/05/26 06:04:05;;;;;;;15.73;4.87;;;;;;;13.02;68.98;102928.47;6013552;29;20238;-71
2023/05/26 06:07:26;;;;;;;19.60;5.37;;;;;;;13.26;67.52;102928.72;6025077;29;20238;-72
2023/05/26 06:10:47;;;;;;;10.03;5.53;;;;;;;12.56;65.74;102929.72;6023672;29;20242;-75
2023/05/26 06:14:08;;;;;;;13.87;6.07;;;;;;;12.60;65.28;102929.44;6020590;29;20239;-72
2023/05/26 06:17:31;;;;;;;31.47;5.73;;;;;;;12.63;65.37;102937.34;6023679;29;20234;-73
2023/05/26 06:20:52;;;;;;;15.77;5.07;;;;;;;12.46;65.33;102940.28;6024492;29;20623;-70
2023/05/26 06:24:13;;;;;;;10.20;5.37;;;;;;;12.42;65.48;102938.72;6026058;29;20552;-72
2023/05/26 06:27:34;;;;;;;8.30;3.20;;;;;;;12.58;65.40;102950.31;6028020;29;20246;-74
2023/05/26 06:30:54;;;;;;;18.33;4.57;;;;;;;12.79;64.40;102943.50;6013610;29;20325;-73
2023/05/26 06:34:33;;;;;;;8.03;3.90;;;;;;;12.97;64.45;102941.44;6012111;29;20565;-73
2023/05/26 06:37:54;;;;;;;14.27;4.27;;;;;;;13.06;63.85;102943.56;6017608;29;20242;-73
2023/05/26 06:41:15;;;;;;;20.77;4.50;;;;;;;13.63;64.62;102942.38;5993993;29;20792;-73
2023/05/26 06:44:36;;;;;;;13.93;4.10;;;;;;;13.28;62.96;102951.13;6008042;29;23599;-71
2023/05/26 06:47:57;;;;;;;10.13;4.50;;;;;;;13.20;63.28;102948.06;6018496;29;20237;-76
2023/05/26 06:51:22;;;;;;;7.23;3.80;;;;;;;13.45;62.93;102937.34;6024884;29;20237;-70
2023/05/26 06:54:43;;;;;;;16.07;5.07;;;;;;;13.54;62.67;102939.41;6038905;29;20233;-69
2023/05/26 06:58:04;;;;;;;9.07;4.53;;;;;;;13.63;61.89;102939.66;6036285;29;20237;-73
2023/05/26 07:01:25;;;;;;;14.00;5.63;;;;;;;13.91;61.22;102946.75;6021902;29;20242;-73
2023/05/26 07:04:46;;;;;;;14.57;3.90;;;;;;;13.86;60.55;102948.91;6021260;29;20241;-72
2023/05/26 07:08:08;;;;;;;19.83;5.43;;;;;;;14.10;59.86;102949.03;6025327;29;20257;-70
2023/05/26 07:11:29;;;;;;;8.43;4.00;;;;;;;14.08;59.34;102953.72;6013766;29;20373;-72
2023/05/26 07:14:54;;;;;;;10.40;4.60;;;;;;;13.99;59.08;102957.06;6021158;29;20266;-74
2023/05/26 07:18:15;;;;;;;16.10;4.73;;;;;;;13.82;58.80;102955.50;6026079;29;20257;-77
2023/05/26 07:21:36;;;;;;;7.57;3.43;;;;;;;14.03;58.14;102954.03;6015415;29;20245;-72
2023/05/26 07:24:59;;;;;;;14.03;5.63;;;;;;;14.43;57.39;102961.06;6027235;29;20238;-79
2023/05/26 07:28:28;;;;;;;9.70;5.03;;;;;;;14.36;56.70;102956.22;6022274;29;20234;-75
2023/05/26 07:31:49;;;;;;;8.00;3.73;;;;;;;14.64;56.24;102958.69;6020163;29;20226;-71
2023/05/26 07:35:10;;;;;;;7.20;3.73;;;;;;;14.65;56.03;102954.09;6021565;29;20279;-73
2023/05/26 07:38:31;;;;;;;8.30;3.83;;;;;;;14.71;55.43;102959.97;6029266;29;20239;-73
2023/05/26 07:41:54;;;;;;;7.27;3.23;;;;;;;14.68;54.65;102952.06;6013421;29;20242;-73
2023/05/26 07:45:14;;;;;;;7.13;3.80;;;;;;;14.82;55.00;102943.75;6031879;29;20344;-77
2023/05/26 07:48:35;;;;;;;8.20;3.70;;;;;;;15.30;54.92;102950.09;6033374;29;20653;-78
2023/05/26 07:51:56;;;;;;;10.03;4.43;;;;;;;14.76;54.83;102951.47;6025289;29;20319;-70
2023/05/26 07:55:17;;;;;;;5.87;4.23;;;;;;;15.08;54.81;102955.41;6038319;29;20237;-70
2023/05/26 07:58:39;;;;;;;9.67;4.77;;;;;;;15.35;54.52;102953.34;6033556;29;20246;-69
2023/05/26 08:02:00;;;;;;;9.50;5.77;;;;;;;15.26;54.90;102950.44;6022429;29;20595;-71
2023/05/26 08:05:21;;;;;;;14.10;5.17;;;;;;;15.09;54.18;102965.28;6041750;29;20242;-71
2023/05/26 08:08:42;;;;;;;15.80;4.67;;;;;;;15.01;54.17;102951.41;6038140;29;20234;-70
2023/05/26 08:12:03;;;;;;;7.83;3.80;;;;;;;15.28;54.14;102956.63;6012906;29;20233;-75
2023/05/26 08:15:25;;;;;;;13.33;3.70;;;;;;;15.65;53.37;102959.19;6023594;29;20528;-74
2023/05/26 08:18:46;;;;;;;9.30;3.20;;;;;;;15.48;53.80;102956.88;6031786;29;20234;-75
2023/05/26 08:22:07;;;;;;;8.77;3.40;;;;;;;15.33;53.95;102959.88;6026672;29;20229;-74
2023/05/26 08:25:28;;;;;;;11.83;4.03;;;;;;;15.74;53.49;102958.47;6032476;29;20258;-74
2023/05/26 08:28:49;;;;;;;13.20;4.27;;;;;;;15.92;52.23;102957.03;6036897;29;20237;-74
2023/05/26 08:32:11;;;;;;;15.17;3.57;;;;;;;15.71;51.86;102957.81;6024312;29;20260;-73
2023/05/26 08:35:32;;;;;;;13.60;3.67;;;;;;;15.73;51.90;102950.41;6033269;29;20238;-74
2023/05/26 08:38:53;;;;;;;6.27;3.50;;;;;;;16.44;51.56;102953.78;6038909;29;20310;-74
2023/05/26 08:42:15;;;;;;;6.80;3.50;;;;;;;16.61;51.38;102939.69;6028494;29;20234;-73
2023/05/26 08:45:38;;;;;;;9.60;3.20;;;;;;;16.46;51.70;102951.78;6031546;29;20222;-73
2023/05/26 08:49:02;;;;;;;5.30;3.50;;;;;;;16.32;51.64;102951.16;6039543;29;20546;-73
2023/05/26 08:52:23;;;;;;;7.97;3.40;;;;;;;16.70;50.66;102947.13;6028684;29;20237;-75
2023/05/26 08:55:45;;;;;;;12.10;4.57;;;;;;;16.42;50.99;102947.59;6031040;29;20254;-74
2023/05/26 08:59:08;;;;;;;6.97;3.60;;;;;;;16.24;51.94;102956.34;6041706;29;20242;-74
2023/05/26 09:02:29;;;;;;;6.90;4.07;;;;;;;16.74;50.12;102937.72;6026130;29;20831;-74
2023/05/26 09:05:52;;;;;;;8.50;4.07;;;;;;;16.80;50.63;102947.22;6032819;29;20238;-74
2023/05/26 09:09:13;;;;;;;9.17;3.50;;;;;;;16.68;50.37;102942.78;6038483;29;20233;-74
2023/05/26 09:12:37;;;;;;;6.93;4.03;;;;;;;16.84;50.70;102937.81;6028018;29;20233;-74
2023/05/26 09:15:58;;;;;;;12.83;3.33;;;;;;;16.95;51.02;102935.06;6031501;29;20238;-74
2023/05/26 09:19:19;;;;;;;9.07;4.47;;;;;;;17.01;50.66;102933.69;6040434;29;20230;-74
2023/05/26 09:22:41;;;;;;;8.17;3.17;;;;;;;16.68;50.16;102940.06;6026259;29;20226;-74
2023/05/26 09:26:06;;;;;;;7.90;4.17;;;;;;;16.98;50.91;102929.34;6027835;29;20644;-74
2023/05/26 09:29:27;;;;;;;10.57;4.97;;;;;;;17.38;50.29;102925.03;6037711;29;20230;-74
2023/05/26 09:32:48;;;;;;;4.73;2.93;;;;;;;18.09;49.79;102931.59;6026016;29;20519;-74
2023/05/26 09:36:09;;;;;;;8.43;3.60;;;;;;;17.83;48.53;102933.91;6028325;29;21279;-73
2023/05/26 09:39:33;;;;;;;15.07;4.20;;;;;;;17.52;48.86;102941.09;6040009;29;22664;-74
2023/05/26 09:42:54;;;;;;;9.97;4.23;;;;;;;17.34;49.13;102930.84;6028012;29;20256;-75
2023/05/26 09:46:21;;;;;;;4.43;2.97;;;;;;;17.97;48.92;102939.00;6026277;29;20261;-74
2023/05/26 09:49:43;;;;;;;9.33;4.20;;;;;;;17.48;48.35;102934.16;6038497;29;20247;-73
2023/05/26 09:53:05;;;;;;;5.80;2.83;;;;;;;17.12;49.35;102956.34;6026912;29;20253;-73
2023/05/26 09:56:33;;;;;;;9.63;3.93;;;;;;;17.02;50.12;102936.28;6027131;29;20322;-74
2023/05/26 09:59:56;;;;;;;9.33;3.57;;;;;;;17.58;48.99;102935.13;6039430;29;20753;-74
2023/05/26 10:03:17;;;;;;;8.40;3.90;;;;;;;17.62;49.60;102929.41;6027467;29;20263;-74
2023/05/26 10:06:38;;;;;;;9.63;4.47;;;;;;;17.85;48.83;102928.31;6030271;29;20230;-74
2023/05/26 10:10:00;;;;;;;6.80;3.50;;;;;;;17.43;48.70;102919.19;6031544;29;20242;-74
2023/05/26 10:13:23;;;;;;;14.37;4.60;;;;;;;17.53;49.28;102929.22;6023453;29;20505;-76
2023/05/26 10:16:45;;;;;;;6.27;3.33;;;;;;;17.82;48.87;102931.28;6029613;29;20320;-72
2023/05/26 10:20:08;;;;;;;6.43;3.27;;;;;;;17.70;48.27;102938.69;6030784;29;20231;-69
2023/05/26 10:23:35;;;;;;;9.55;3.28;;;;;;;17.72;48.31;102939.41;6039659;29;20233;-69
2023/05/26 10:27:03;;;;;;;10.57;5.07;;;;;;;17.87;48.95;102938.09;6018243;29;20229;-72
2023/05/26 10:30:27;;;;;;;12.53;4.27;;;;;;;18.89;47.50;102930.72;6023758;29;20515;-70
2023/05/26 10:33:48;;;;;;;7.47;3.85;;;;;;;18.59;47.27;102944.41;6032459;29;20348;-73
2023/05/26 10:37:16;;;;;;;6.80;4.10;;;;;;;18.44;47.32;102937.56;6013694;29;21465;-73
2023/05/26 10:40:39;;;;;;;16.58;6.30;;;;;;;18.49;47.29;102948.97;6013160;29;20320;-73
2023/05/26 10:44:01;;;;;;;8.27;4.57;;;;;;;17.89;48.01;102932.50;6028583;29;20249;-72
2023/05/26 10:47:30;;;;;;;7.00;4.00;;;;;;;18.26;48.32;102940.06;6008194;29;20356;-75
2023/05/26 10:51:15;;;;;;;8.00;4.00;;;;;;;18.13;47.97;102928.47;6013804;29;20616;-71
2023/05/26 10:54:35;;;;;;;16.80;5.07;;;;;;;17.96;48.96;102928.25;6035117;29;20242;-74
2023/05/26 10:58:32;;;;;;;7.18;4.40;;;;;;;19.04;47.88;102940.25;6019876;29;20229;-75
2023/05/26 11:01:53;;;;;;;6.28;4.10;;;;;;;18.97;46.38;102938.19;6022148;29;20325;-71
2023/05/26 11:05:32;;;;;;;6.80;4.45;;;;;;;19.77;45.73;102928.81;6029863;29;20233;-73
2023/05/26 11:08:53;;;;;;;13.15;8.15;;;;;;;19.31;45.90;102933.22;6030065;29;20229;-72
2023/05/26 11:12:15;;;;;;;9.77;3.95;;;;;;;18.77;46.07;102934.56;6018529;29;20233;-72
2023/05/26 11:15:36;;;;;;;8.45;3.97;;;;;;;19.52;46.07;102925.78;6020586;29;20238;-73
2023/05/26 11:18:58;;;;;;;6.55;4.30;;;;;;;19.43;46.91;102922.03;6033294;29;22815;-72
2023/05/26 11:22:21;;;;;;;8.57;4.13;;;;;;;19.74;45.65;102929.06;6024002;29;20241;-72
2023/05/26 11:25:46;;;;;;;5.82;4.20;;;;;;;19.88;45.59;102930.47;6024495;29;20250;-71
2023/05/26 11:29:08;;;;;;;9.65;5.07;;;;;;;20.48;45.57;102919.13;6034809;29;20230;-75
2023/05/26 11:32:29;;;;;;;9.35;3.35;;;;;;;18.95;45.76;102911.00;6024163;29;20723;-77
2023/05/26 11:35:50;;;;;;;15.43;6.28;;;;;;;19.68;47.38;102924.19;6021525;29;20246;-81
2023/05/26 11:39:13;;;;;;;6.32;3.78;;;;;;;19.89;46.88;102926.75;6026630;29;20238;-75
2023/05/26 11:42:34;;;;;;;7.60;4.88;;;;;;;19.82;45.22;102936.53;6026911;29;20241;-72
2023/05/26 11:46:00;;;;;;;10.90;4.93;;;;;;;21.00;44.71;102919.41;6026137;29;20233;-70
2023/05/26 11:49:21;;;;;;;7.22;5.25;;;;;;;21.28;44.26;102916.50;6039946;29;20308;-72
2023/05/26 11:52:42;;;;;;;11.60;5.50;;;;;;;20.80;43.96;102926.03;6004821;29;20237;-72
2023/05/26 11:56:07;;;;;;;7.82;5.00;;;;;;;20.49;44.99;102923.56;6029077;29;20659;-72
2023/05/26 11:59:27;;;;;;;10.25;5.72;;;;;;;21.02;43.57;102936.56;6038667;29;20238;-73
2023/05/26 12:02:49;;;;;;;9.10;4.50;;;;;;;20.31;44.31;102928.13;6021243;29;20297;-72
2023/05/26 12:06:18;;;;;;;7.95;4.78;;;;;;;19.78;45.81;102932.38;6028341;29;20907;-74
2023/05/26 12:09:38;;;;;;;6.60;4.05;;;;;;;20.16;46.62;102935.06;6033756;29;20320;-78
2023/05/26 12:13:00;;;;;;;11.50;5.03;;;;;;;20.45;44.68;102921.28;6023480;29;20282;-75
2023/05/26 12:16:24;;;;;;;12.80;4.55;;;;;;;20.17;44.65;102917.59;6028237;29;20242;-73
2023/05/26 12:19:45;;;;;;;12.82;3.83;;;;;;;19.98;45.56;102925.00;6044302;29;20253;-73
2023/05/26 12:23:08;;;;;;;8.32;4.03;;;;;;;19.98;45.91;102922.28;6027308;29;20256;-75
2023/05/26 12:26:29;;;;;;;9.95;4.13;;;;;;;19.42;46.37;102923.03;6026695;29;20226;-74
2023/05/26 12:29:52;;;;;;;7.57;3.60;;;;;;;19.65;45.88;102929.94;6032834;29;20245;-75
2023/05/26 12:33:13;;;;;;;8.02;3.20;;;;;;;20.77;45.00;102929.06;6021004;29;20249;-75
2023/05/26 12:36:34;;;;;;;9.27;4.43;;;;;;;20.71;43.70;102927.81;6027397;29;20251;-75
2023/05/26 12:39:55;;;;;;;8.95;3.63;;;;;;;20.99;44.26;102925.91;6038928;29;20507;-75
2023/05/26 12:43:17;;;;;;;7.95;3.75;;;;;;;21.18;43.73;102912.97;6023728;29;20757;-74
2023/05/26 12:46:40;;;;;;;6.00;3.33;;;;;;;21.89;42.07;102905.56;6025819;29;20664;-71
2023/05/26 12:50:01;;;;;;;8.93;4.35;;;;;;;21.73;41.62;102904.56;6040202;29;20242;-74
2023/05/26 12:53:22;;;;;;;10.45;4.60;;;;;;;22.11;41.85;102895.94;6019488;29;20238;-77
2023/05/26 12:56:43;;;;;;;8.45;3.47;;;;;;;21.89;42.34;102891.84;6020418;29;20253;-75
2023/05/26 13:00:04;;;;;;;10.52;4.22;;;;;;;21.66;43.04;102897.97;6031487;29;20233;-73
2023/05/26 13:03:26;;;;;;;4.47;3.33;;;;;;;21.51;42.96;102905.06;6011802;29;20237;-71
2023/05/26 13:06:51;;;;;;;7.85;3.92;;;;;;;22.33;41.91;102889.88;6017636;29;20334;-73
2023/05/26 13:10:12;;;;;;;9.88;3.72;;;;;;;25.69;36.48;102887.88;6003643;29;20265;-79
2023/05/26 13:13:33;;;;;;;7.70;3.85;;;;;;;23.45;38.74;102894.91;6036059;29;20230;-74
2023/05/26 13:16:54;;;;;;;12.90;4.40;;;;;;;23.81;40.95;102904.56;6024844;29;20241;-72
2023/05/26 13:20:16;;;;;;;3.60;2.97;;;;;;;23.93;41.57;102902.31;6033234;29;20532;-72
2023/05/26 13:23:37;;;;;;;4.95;3.30;;;;;;;22.08;43.08;102893.50;6029785;29;20239;-69
2023/05/26 13:26:58;;;;;;;7.20;3.80;;;;;;;21.52;43.82;102904.91;6013362;29;22920;-71
2023/05/26 13:30:19;;;;;;;7.28;3.20;;;;;;;23.20;41.94;102892.31;6036349;29;20238;-71
2023/05/26 13:33:40;;;;;;;13.75;6.50;;;;;;;24.60;39.56;102888.03;6027538;29;20253;-73
2023/05/26 13:37:03;;;;;;;7.50;5.05;;;;;;;25.63;37.85;102874.81;6029328;29;20242;-73
2023/05/26 13:40:23;;;;;;;7.00;3.38;;;;;;;24.78;37.92;102878.69;6027985;29;20234;-72
2023/05/26 13:43:45;;;;;;;10.15;3.92;;;;;;;25.13;38.55;102892.78;6035728;29;20548;-73
2023/05/26 13:47:06;;;;;;;5.07;3.72;;;;;;;23.62;40.36;102896.66;6026224;29;20237;-74
2023/05/26 13:50:27;;;;;;;7.10;5.47;;;;;;;23.73;40.74;102900.97;6032759;29;20229;-74
2023/05/26 13:53:49;;;;;;;10.15;6.90;;;;;;;24.97;37.65;102886.50;6028029;29;20232;-76
2023/05/26 13:57:10;;;;;;;7.15;4.05;;;;;;;22.54;40.02;102892.22;6035877;29;20241;-76
2023/05/26 14:00:31;;;;;;;14.32;4.40;;;;;;;21.05;42.62;102895.16;6039853;29;20233;-76
2023/05/26 14:03:51;;;;;;;14.20;4.43;;;;;;;22.29;41.26;102888.47;6042686;29;20245;-77
2023/05/26 14:07:12;;;;;;;7.03;5.28;;;;;;;22.80;41.04;102882.88;6037579;29;20229;-77
2023/05/26 14:10:35;;;;;;;8.02;5.30;;;;;;;22.89;40.36;102879.16;6037181;29;20237;-76
2023/05/26 14:13:56;;;;;;;5.28;3.08;;;;;;;22.63;41.52;102889.38;6042194;29;20297;-77
2023/05/26 14:17:17;;;;;;;6.28;3.42;;;;;;;22.66;41.36;102879.91;6031278;29;20297;-76
2023/05/26 14:20:38;;;;;;;8.20;4.28;;;;;;;22.69;41.67;102888.72;6039975;29;20246;-75
2023/05/26 14:23:59;;;;;;;4.13;2.85;;;;;;;22.68;41.47;102883.34;6052858;29;20274;-76
2023/05/26 14:27:21;;;;;;;7.05;3.30;;;;;;;22.92;40.39;102881.56;6032091;29;20632;-75
2023/05/26 14:30:42;;;;;;;5.45;3.47;;;;;;;21.82;41.92;102890.75;6035515;29;25143;-77
2023/05/26 14:34:03;;;;;;;8.75;3.88;;;;;;;21.88;41.99;102887.34;6052836;29;20241;-77
2023/05/26 14:37:25;;;;;;;5.05;3.00;;;;;;;22.19;42.02;102883.13;6037432;29;20324;-77
2023/05/26 14:40:46;;;;;;;5.70;3.15;;;;;;;22.55;41.60;102889.28;6035042;29;20238;-77
2023/05/26 14:44:08;;;;;;;6.05;3.85;;;;;;;22.47;41.77;102882.88;6036946;29;20241;-77
2023/05/26 14:47:28;;;;;;;5.13;3.20;;;;;;;22.42;41.83;102891.66;6030291;29;20234;-76
2023/05/26 14:50:49;;;;;;;6.57;5.95;;;;;;;22.69;42.30;102885.09;6032011;29;20332;-76
2023/05/26 14:54:10;;;;;;;9.77;4.20;;;;;;;22.76;41.09;102873.25;6049640;29;20238;-75
2023/05/26 14:57:31;;;;;;;8.48;3.70;;;;;;;21.90;41.70;102878.97;6040204;29;20233;-77
2023/05/26 15:00:53;;;;;;;10.80;3.38;;;;;;;21.64;42.48;102889.03;6023964;29;20231;-77
2023/05/26 15:04:14;;;;;;;5.60;2.97;;;;;;;22.11;42.48;102883.03;6036762;29;20230;-75
2023/05/26 15:07:35;;;;;;;5.53;2.90;;;;;;;21.98;43.09;102881.78;6021934;29;20265;-75
2023/05/26 15:10:56;;;;;;;5.45;3.08;;;;;;;21.67;42.92;102886.84;6033260;29;20232;-75
2023/05/26 15:14:17;;;;;;;7.18;3.17;;;;;;;22.19;43.25;102885.88;6045581;29;20237;-77
2023/05/26 15:17:39;;;;;;;6.28;3.67;;;;;;;22.85;42.34;102880.50;6036050;29;20600;-77
2023/05/26 15:21:02;;;;;;;6.53;3.75;;;;;;;22.79;41.55;102875.69;6042778;29;20237;-76
2023/05/26 15:24:23;;;;;;;8.52;3.30;;;;;;;21.83;42.63;102884.25;6047550;29;20238;-75
2023/05/26 15:27:44;;;;;;;4.18;3.40;;;;;;;21.01;44.09;102886.34;6034917;29;20324;-77
2023/05/26 15:31:06;;;;;;;10.98;3.83;;;;;;;20.62;44.88;102871.16;6048468;29;20457;-77
2023/05/26 15:34:28;;;;;;;6.40;3.17;;;;;;;21.54;43.86;102863.56;6046287;29;21237;-76
2023/05/26 15:37:48;;;;;;;3.85;2.53;;;;;;;21.29;43.86;102863.34;6020048;29;20242;-76